Terminal Aerodrome Forecast
Issued by NWS Atlanta, GA

Home | Current Version | Previous Version | Text Only | Print | Product List | Glossary On
Versions: 1 2 3 4 5 6 7 8 9 10 11 12 13 14 15 16 17 18 19 20
000
FTUS42 KFFC 042343
TAFCSG
TAF
KCSG 042343Z 0500/0524 22010G18KT P6SM BKN050
     FM050300 21010KT P6SM VCSH BKN025
     FM050600 21007KT 6SM -SHRA BR BKN007
     FM051000 21006KT 3SM -SHRA BR BKN005
     FM051700 31012KT 6SM -RA BR OVC008=

USA.gov is the U.S. government's official web portal to all federal, state and local government web resources and services.